createdAt,value
2022-08-25T00:00:35.690Z,1014.51
2022-08-25T00:01:35.680Z,1014.49
2022-08-25T00:02:35.033Z,1014.51
2022-08-25T00:03:35.967Z,1014.56
2022-08-25T00:04:34.990Z,1014.55
2022-08-25T00:05:35.834Z,1014.57
2022-08-25T00:06:35.631Z,1014.53
2022-08-25T00:07:35.624Z,1014.55
2022-08-25T00:08:35.623Z,1014.59
2022-08-25T00:09:35.593Z,1014.63
2022-08-25T00:10:35.023Z,1014.62
2022-08-25T00:11:34.889Z,1014.58
2022-08-25T00:12:34.885Z,1014.56
2022-08-25T00:13:36.246Z,1014.60
2022-08-25T00:14:34.871Z,1014.57
2022-08-25T00:15:35.576Z,1014.59
2022-08-25T00:16:34.865Z,1014.58
2022-08-25T00:17:35.366Z,1014.59
2022-08-25T00:18:35.497Z,1014.60
2022-08-25T00:19:34.827Z,1014.60
2022-08-25T00:20:36.227Z,1014.57
2022-08-25T00:21:35.825Z,1014.55
2022-08-25T00:22:35.456Z,1014.57
2022-08-25T00:23:35.447Z,1014.57
2022-08-25T00:24:35.435Z,1014.56
2022-08-25T00:25:34.776Z,1014.55
2022-08-25T00:26:34.761Z,1014.52
2022-08-25T00:27:36.730Z,1014.53
2022-08-25T00:28:35.390Z,1014.54
2022-08-25T00:29:34.767Z,1014.52
2022-08-25T00:30:34.718Z,1014.55
2022-08-25T00:31:38.879Z,1014.55
2022-08-25T00:32:35.338Z,1014.56
2022-08-25T00:33:35.329Z,1014.57
2022-08-25T00:34:34.667Z,1014.56
2022-08-25T00:35:34.631Z,1014.54
2022-08-25T00:36:35.311Z,1014.55
2022-08-25T00:37:35.292Z,1014.55
2022-08-25T00:38:34.617Z,1014.58
2022-08-25T00:39:35.256Z,1014.57
2022-08-25T00:40:34.670Z,1014.58
2022-08-25T00:41:35.251Z,1014.56
2022-08-25T00:42:34.583Z,1014.60
2022-08-25T00:43:34.553Z,1014.60
2022-08-25T00:44:34.523Z,1014.61
2022-08-25T00:45:35.213Z,1014.59
2022-08-25T00:46:34.577Z,1014.58
2022-08-25T00:47:35.185Z,1014.62
2022-08-25T00:48:35.175Z,1014.60
2022-08-25T00:49:35.172Z,1014.60
2022-08-25T00:50:35.154Z,1014.64
2022-08-25T00:51:35.147Z,1014.57
2022-08-25T00:52:35.135Z,1014.56
2022-08-25T00:53:35.122Z,1014.60
2022-08-25T00:54:34.514Z,1014.58
2022-08-25T00:55:34.426Z,1014.51
2022-08-25T00:56:34.409Z,1014.52
2022-08-25T00:57:35.186Z,1014.57
2022-08-25T00:58:35.311Z,1014.57
2022-08-25T00:59:34.408Z,1014.56
2022-08-25T01:00:34.378Z,1014.58
2022-08-25T01:01:35.966Z,1014.53
2022-08-25T01:02:35.104Z,1014.57
2022-08-25T01:03:35.854Z,1014.60
2022-08-25T01:04:35.008Z,1014.59
2022-08-25T01:05:35.009Z,1014.53
2022-08-25T01:06:34.991Z,1014.58
2022-08-25T01:07:35.229Z,1014.56
2022-08-25T01:08:34.291Z,1014.56
2022-08-25T01:09:34.931Z,1014.54
2022-08-25T01:10:34.261Z,1014.55
2022-08-25T01:11:34.953Z,1014.57
2022-08-25T01:12:34.912Z,1014.56
2022-08-25T01:13:34.909Z,1014.55
2022-08-25T01:14:34.223Z,1014.55
2022-08-25T01:15:34.352Z,1014.56
2022-08-25T01:16:35.755Z,1014.54
2022-08-25T01:17:34.895Z,1014.58
2022-08-25T01:18:34.854Z,1014.56
2022-08-25T01:19:34.246Z,1014.57
2022-08-25T01:20:34.205Z,1014.56
2022-08-25T01:21:34.194Z,1014.51
2022-08-25T01:22:34.834Z,1014.53
2022-08-25T01:23:34.806Z,1014.56
2022-08-25T01:24:34.128Z,1014.53
2022-08-25T01:25:34.116Z,1014.55
2022-08-25T01:26:34.076Z,1014.57
2022-08-25T01:27:34.164Z,1014.55
2022-08-25T01:28:34.776Z,1014.55
2022-08-25T01:29:34.737Z,1014.53
2022-08-25T01:30:34.081Z,1014.56
2022-08-25T01:31:34.784Z,1014.56
2022-08-25T01:32:34.029Z,1014.57
2022-08-25T01:33:34.683Z,1014.55
2022-08-25T01:34:34.086Z,1014.59
2022-08-25T01:35:34.682Z,1014.54
2022-08-25T01:36:34.661Z,1014.58
2022-08-25T01:37:34.654Z,1014.58
2022-08-25T01:38:34.642Z,1014.55
2022-08-25T01:39:34.075Z,1014.53
2022-08-25T01:40:34.651Z,1014.57
2022-08-25T01:41:34.653Z,1014.55
2022-08-25T01:42:34.600Z,1014.55
2022-08-25T01:43:34.602Z,1014.56
2022-08-25T01:44:33.924Z,1014.55
2022-08-25T01:45:34.563Z,1014.50
2022-08-25T01:46:33.941Z,1014.51
2022-08-25T01:47:34.676Z,1014.51
2022-08-25T01:48:34.534Z,1014.46
2022-08-25T01:49:33.824Z,1014.51
2022-08-25T01:50:34.516Z,1014.52
2022-08-25T01:51:33.948Z,1014.54
2022-08-25T01:52:34.835Z,1014.59
2022-08-25T01:53:34.475Z,1014.54
2022-08-25T01:54:34.475Z,1014.53
2022-08-25T01:55:33.789Z,1014.58
2022-08-25T01:56:34.446Z,1014.56
2022-08-25T01:57:34.436Z,1014.58
2022-08-25T01:58:34.434Z,1014.57
2022-08-25T01:59:34.421Z,1014.54
2022-08-25T02:00:33.727Z,1014.58
2022-08-25T02:01:34.445Z,1014.53
2022-08-25T02:02:34.098Z,1014.53
2022-08-25T02:03:35.752Z,1014.55
2022-08-25T02:04:34.370Z,1014.55
2022-08-25T02:05:33.671Z,1014.53
2022-08-25T02:06:34.341Z,1014.55
2022-08-25T02:07:33.764Z,1014.54
2022-08-25T02:08:33.667Z,1014.57
2022-08-25T02:09:34.309Z,1014.53
2022-08-25T02:10:34.301Z,1014.56
2022-08-25T02:11:34.290Z,1014.55
2022-08-25T02:12:33.614Z,1014.51
2022-08-25T02:13:33.602Z,1014.55
2022-08-25T02:14:34.262Z,1014.52
2022-08-25T02:15:34.322Z,1014.51
2022-08-25T02:16:33.873Z,1014.49
2022-08-25T02:17:34.223Z,1014.49
2022-08-25T02:18:34.214Z,1014.50
2022-08-25T02:19:34.206Z,1014.47
2022-08-25T02:20:33.515Z,1014.48
2022-08-25T02:21:34.184Z,1014.48
2022-08-25T02:22:33.517Z,1014.50
2022-08-25T02:23:33.475Z,1014.49
2022-08-25T02:24:34.157Z,1014.49
2022-08-25T02:25:33.485Z,1014.49
2022-08-25T02:26:33.511Z,1014.42
2022-08-25T02:27:33.561Z,1014.40
2022-08-25T02:28:33.436Z,1014.40
2022-08-25T02:29:33.415Z,1014.42
2022-08-25T02:30:33.501Z,1014.40
2022-08-25T02:31:34.069Z,1014.37
2022-08-25T02:32:34.066Z,1014.39
2022-08-25T02:33:33.419Z,1014.40
2022-08-25T02:34:34.030Z,1014.42
2022-08-25T02:35:34.022Z,1014.43
2022-08-25T02:36:33.404Z,1014.45
2022-08-25T02:37:33.370Z,1014.42
2022-08-25T02:38:33.354Z,1014.46
2022-08-25T02:39:33.361Z,1014.42
2022-08-25T02:40:33.972Z,1014.42
2022-08-25T02:41:33.282Z,1014.45
2022-08-25T02:42:33.366Z,1014.46
2022-08-25T02:43:35.234Z,1014.48
2022-08-25T02:44:33.983Z,1014.52
2022-08-25T02:45:33.966Z,1014.48
2022-08-25T02:46:33.227Z,1014.46
2022-08-25T02:47:35.146Z,1014.50
2022-08-25T02:48:33.884Z,1014.50
2022-08-25T02:49:33.210Z,1014.47
2022-08-25T02:50:33.890Z,1014.50
2022-08-25T02:51:33.865Z,1014.46
2022-08-25T02:52:34.127Z,1014.46
2022-08-25T02:53:33.137Z,1014.47
2022-08-25T02:54:33.816Z,1014.45
2022-08-25T02:55:34.678Z,1014.43
2022-08-25T02:56:33.802Z,1014.41
2022-08-25T02:57:33.167Z,1014.42
2022-08-25T02:58:33.770Z,1014.46
2022-08-25T02:59:33.761Z,1014.43
2022-08-25T03:00:33.076Z,1014.42
2022-08-25T03:01:33.261Z,1014.44
2022-08-25T03:02:33.302Z,1014.41
2022-08-25T03:03:37.543Z,1014.42
2022-08-25T03:04:34.742Z,1014.43
2022-08-25T03:05:33.701Z,1014.42
2022-08-25T03:06:33.010Z,1014.44
2022-08-25T03:07:35.490Z,1014.42
2022-08-25T03:08:32.992Z,1014.44
2022-08-25T03:09:33.001Z,1014.45
2022-08-25T03:10:32.974Z,1014.45
2022-08-25T03:11:33.649Z,1014.45
2022-08-25T03:12:33.333Z,1014.40
2022-08-25T03:13:34.449Z,1014.45
2022-08-25T03:14:35.517Z,1014.47
2022-08-25T03:15:33.013Z,1014.47
2022-08-25T03:16:33.826Z,1014.45
2022-08-25T03:17:32.894Z,1014.46
2022-08-25T03:18:32.888Z,1014.47
2022-08-25T03:19:34.546Z,1014.47
2022-08-25T03:20:33.709Z,1014.49
2022-08-25T03:21:32.945Z,1014.49
2022-08-25T03:22:33.655Z,1014.48
2022-08-25T03:23:33.506Z,1014.45
2022-08-25T03:24:33.487Z,1014.41
2022-08-25T03:25:33.477Z,1014.42
2022-08-25T03:26:32.794Z,1014.38
2022-08-25T03:27:32.882Z,1014.40
2022-08-25T03:28:32.786Z,1014.37
2022-08-25T03:29:32.790Z,1014.39
2022-08-25T03:30:32.749Z,1014.38
2022-08-25T03:31:32.789Z,1014.39
2022-08-25T03:32:32.743Z,1014.39
2022-08-25T03:33:32.765Z,1014.36
2022-08-25T03:34:33.387Z,1014.34
2022-08-25T03:35:32.722Z,1014.34
2022-08-25T03:36:32.689Z,1014.33
2022-08-25T03:37:33.361Z,1014.32
2022-08-25T03:38:32.720Z,1014.28
2022-08-25T03:39:32.691Z,1014.27
2022-08-25T03:40:32.741Z,1014.28
2022-08-25T03:41:33.311Z,1014.27
2022-08-25T03:42:33.302Z,1014.27
2022-08-25T03:43:33.292Z,1014.22
2022-08-25T03:44:33.283Z,1014.24
2022-08-25T03:45:32.685Z,1014.20
2022-08-25T03:46:33.270Z,1014.18
2022-08-25T03:47:33.258Z,1014.16
2022-08-25T03:48:33.246Z,1014.12
2022-08-25T03:49:33.246Z,1014.13
2022-08-25T03:50:32.625Z,1014.14
2022-08-25T03:51:32.566Z,1014.14
2022-08-25T03:52:33.204Z,1014.09
2022-08-25T03:53:33.300Z,1014.15
2022-08-25T03:54:32.682Z,1014.11
2022-08-25T03:55:34.477Z,1014.08
2022-08-25T03:56:34.927Z,1014.06
2022-08-25T03:57:32.587Z,1014.03
2022-08-25T03:58:32.883Z,1014.05
2022-08-25T03:59:33.131Z,1014.04
2022-08-25T04:00:33.278Z,1014.07
2022-08-25T04:01:32.484Z,1014.01
2022-08-25T04:02:33.498Z,1014.04
2022-08-25T04:03:33.079Z,1014.01
2022-08-25T04:04:32.469Z,1014.00
2022-08-25T04:05:32.369Z,1014.03
2022-08-25T04:06:33.102Z,1013.99
2022-08-25T04:07:33.042Z,1014.00
2022-08-25T04:08:33.032Z,1013.98
2022-08-25T04:09:36.746Z,1013.99
2022-08-25T04:10:32.352Z,1013.99
2022-08-25T04:11:32.320Z,1013.97
2022-08-25T04:12:32.323Z,1013.99
2022-08-25T04:13:32.972Z,1014.01
2022-08-25T04:14:32.335Z,1013.99
2022-08-25T04:15:32.945Z,1014.01
2022-08-25T04:16:32.991Z,1014.00
2022-08-25T04:17:32.938Z,1014.03
2022-08-25T04:18:32.245Z,1014.00
2022-08-25T04:19:32.251Z,1014.04
2022-08-25T04:20:32.914Z,1013.97
2022-08-25T04:21:33.299Z,1013.96
2022-08-25T04:22:32.255Z,1013.96
2022-08-25T04:23:32.186Z,1013.99
2022-08-25T04:24:32.863Z,1013.98
2022-08-25T04:25:32.166Z,1013.97
2022-08-25T04:26:32.834Z,1014.00
2022-08-25T04:27:32.825Z,1013.99
2022-08-25T04:28:33.089Z,1013.99
2022-08-25T04:29:32.806Z,1013.98
2022-08-25T04:30:32.793Z,1013.99
2022-08-25T04:31:32.135Z,1013.96
2022-08-25T04:32:32.771Z,1013.94
2022-08-25T04:33:32.741Z,1013.93
2022-08-25T04:34:34.018Z,1013.94
2022-08-25T04:35:32.740Z,1013.95
2022-08-25T04:36:32.719Z,1013.91
2022-08-25T04:37:32.711Z,1013.93
2022-08-25T04:38:32.013Z,1013.91
2022-08-25T04:39:32.683Z,1013.89
2022-08-25T04:40:32.029Z,1013.88
2022-08-25T04:41:32.674Z,1013.86
2022-08-25T04:42:33.431Z,1013.87
2022-08-25T04:43:32.642Z,1013.88
2022-08-25T04:44:31.983Z,1013.87
2022-08-25T04:45:32.675Z,1013.87
2022-08-25T04:46:31.946Z,1013.87
2022-08-25T04:47:31.915Z,1013.82
2022-08-25T04:48:31.945Z,1013.85
2022-08-25T04:49:32.593Z,1013.85
2022-08-25T04:50:31.896Z,1013.83
2022-08-25T04:51:31.957Z,1013.80
2022-08-25T04:52:32.649Z,1013.82
2022-08-25T04:53:32.553Z,1013.82
2022-08-25T04:54:37.326Z,1013.81
2022-08-25T04:55:34.838Z,1013.82
2022-08-25T04:56:32.559Z,1013.82
2022-08-25T04:57:32.514Z,1013.85
2022-08-25T04:58:31.816Z,1013.86
2022-08-25T04:59:32.482Z,1013.82
2022-08-25T05:00:32.468Z,1013.87
2022-08-25T05:01:31.771Z,1013.84
2022-08-25T05:02:31.769Z,1013.84
2022-08-25T05:03:31.769Z,1013.83
2022-08-25T05:04:34.190Z,1013.78
2022-08-25T05:05:32.407Z,1013.86
2022-08-25T05:06:32.400Z,1013.78
2022-08-25T05:07:33.171Z,1013.79
2022-08-25T05:08:32.379Z,1013.76
2022-08-25T05:09:33.083Z,1013.74
2022-08-25T05:10:31.680Z,1013.78
2022-08-25T05:11:32.341Z,1013.75
2022-08-25T05:12:31.682Z,1013.77
2022-08-25T05:13:32.330Z,1013.77
2022-08-25T05:14:32.327Z,1013.73
2022-08-25T05:15:32.292Z,1013.76
2022-08-25T05:16:31.710Z,1013.77
2022-08-25T05:17:32.282Z,1013.79
2022-08-25T05:18:32.273Z,1013.81
2022-08-25T05:19:32.263Z,1013.85
2022-08-25T05:20:31.576Z,1013.84
2022-08-25T05:21:32.234Z,1013.89
2022-08-25T05:22:31.680Z,1013.86
2022-08-25T05:23:31.546Z,1013.89
2022-08-25T05:24:31.529Z,1013.95
2022-08-25T05:25:32.196Z,1013.93
2022-08-25T05:26:32.189Z,1013.94
2022-08-25T05:27:31.549Z,1013.98
2022-08-25T05:28:33.407Z,1013.94
2022-08-25T05:29:32.159Z,1013.99
2022-08-25T05:30:31.501Z,1013.97
2022-08-25T05:31:31.542Z,1013.95
2022-08-25T05:32:32.121Z,1013.99
2022-08-25T05:33:32.438Z,1013.98
2022-08-25T05:34:32.099Z,1014.01
2022-08-25T05:35:32.099Z,1014.02
2022-08-25T05:36:31.391Z,1014.00
2022-08-25T05:37:32.069Z,1014.01
2022-08-25T05:38:31.394Z,1014.03
2022-08-25T05:39:32.053Z,1014.05
2022-08-25T05:40:32.087Z,1014.09
2022-08-25T05:41:31.332Z,1014.11
2022-08-25T05:42:32.021Z,1014.08
2022-08-25T05:43:32.008Z,1014.12
2022-08-25T05:44:31.993Z,1014.16
2022-08-25T05:45:31.352Z,1014.18
2022-08-25T05:46:31.661Z,1014.19
2022-08-25T05:47:31.885Z,1014.22
2022-08-25T05:48:31.993Z,1014.19
2022-08-25T05:49:31.288Z,1014.19
2022-08-25T05:50:32.293Z,1014.24
2022-08-25T05:51:31.248Z,1014.21
2022-08-25T05:52:31.237Z,1014.19
2022-08-25T05:53:34.160Z,1014.23
2022-08-25T05:54:31.207Z,1014.21
2022-08-25T05:55:31.201Z,1014.25
2022-08-25T05:56:31.210Z,1014.22
2022-08-25T05:57:31.857Z,1014.25
2022-08-25T05:58:31.202Z,1014.27
2022-08-25T05:59:31.828Z,1014.24
2022-08-25T06:00:31.138Z,1014.25
2022-08-25T06:01:31.353Z,1014.21
2022-08-25T06:02:31.149Z,1014.23
2022-08-25T06:03:31.852Z,1014.19
2022-08-25T06:04:31.097Z,1014.17
2022-08-25T06:05:31.088Z,1014.14
2022-08-25T06:06:31.122Z,1014.13
2022-08-25T06:07:31.086Z,1014.13
2022-08-25T06:08:31.082Z,1014.11
2022-08-25T06:09:31.723Z,1014.09
2022-08-25T06:10:31.713Z,1014.07
2022-08-25T06:11:31.705Z,1014.11
2022-08-25T06:12:31.003Z,1014.10
2022-08-25T06:13:31.015Z,1014.12
2022-08-25T06:14:31.687Z,1014.06
2022-08-25T06:15:31.703Z,1014.08
2022-08-25T06:16:31.747Z,1014.05
2022-08-25T06:17:31.655Z,1014.08
2022-08-25T06:18:30.956Z,1014.12
2022-08-25T06:19:31.046Z,1014.15
2022-08-25T06:20:31.082Z,1014.08
2022-08-25T06:21:31.596Z,1014.06
2022-08-25T06:22:30.910Z,1014.12
2022-08-25T06:23:31.593Z,1014.15
2022-08-25T06:24:30.925Z,1014.14
2022-08-25T06:25:31.560Z,1014.13
2022-08-25T06:26:31.540Z,1014.13
2022-08-25T06:27:31.537Z,1014.10
2022-08-25T06:28:30.910Z,1014.19
2022-08-25T06:29:30.829Z,1014.23
2022-08-25T06:30:31.502Z,1014.24
2022-08-25T06:31:30.860Z,1014.21
2022-08-25T06:32:30.912Z,1014.19
2022-08-25T06:33:31.473Z,1014.18
2022-08-25T06:34:31.466Z,1014.19
2022-08-25T06:35:31.453Z,1014.22
2022-08-25T06:36:31.442Z,1014.21
2022-08-25T06:37:31.444Z,1014.23
2022-08-25T06:38:31.414Z,1014.19
2022-08-25T06:39:30.746Z,1014.23
2022-08-25T06:40:30.786Z,1014.21
2022-08-25T06:41:37.121Z,1014.20
2022-08-25T06:42:31.704Z,1014.19
2022-08-25T06:43:31.388Z,1014.20
2022-08-25T06:44:32.135Z,1014.19
2022-08-25T06:45:31.351Z,1014.16
2022-08-25T06:46:36.516Z,1014.21
2022-08-25T06:47:33.580Z,1014.21
2022-08-25T06:48:31.327Z,1014.22
2022-08-25T06:49:36.025Z,1014.24
2022-08-25T06:50:31.386Z,1014.26
2022-08-25T06:51:30.607Z,1014.24
2022-08-25T06:52:30.632Z,1014.30
2022-08-25T06:53:31.272Z,1014.30
2022-08-25T06:54:30.644Z,1014.32
2022-08-25T06:55:30.612Z,1014.35
2022-08-25T06:56:30.591Z,1014.33
2022-08-25T06:57:31.590Z,1014.36
2022-08-25T06:58:30.564Z,1014.31
2022-08-25T06:59:32.231Z,1014.30
2022-08-25T07:00:31.627Z,1014.34
2022-08-25T07:01:31.920Z,1014.32
2022-08-25T07:02:30.722Z,1014.32
2022-08-25T07:03:31.166Z,1014.34
2022-08-25T07:04:31.184Z,1014.35
2022-08-25T07:05:45.448Z,1014.30
2022-08-25T07:06:33.374Z,1014.38
2022-08-25T07:07:42.825Z,1014.29
2022-08-25T07:08:31.484Z,1014.31
2022-08-25T07:09:31.120Z,1014.30
2022-08-25T07:10:31.097Z,1014.32
2022-08-25T07:11:30.396Z,1014.24
2022-08-25T07:12:31.087Z,1014.31
2022-08-25T07:13:30.485Z,1014.26
2022-08-25T07:14:30.435Z,1014.23
2022-08-25T07:15:30.360Z,1014.23
2022-08-25T07:16:31.171Z,1014.25
2022-08-25T07:17:31.018Z,1014.26
2022-08-25T07:18:31.014Z,1014.25
2022-08-25T07:19:30.320Z,1014.29
2022-08-25T07:20:31.131Z,1014.31
2022-08-25T07:21:33.412Z,1014.29
2022-08-25T07:22:30.271Z,1014.33
2022-08-25T07:23:30.568Z,1014.33
2022-08-25T07:24:30.942Z,1014.36
2022-08-25T07:25:31.704Z,1014.33
2022-08-25T07:26:38.781Z,1014.30
2022-08-25T07:27:31.214Z,1014.32
2022-08-25T07:28:30.908Z,1014.39
2022-08-25T07:29:32.801Z,1014.29
2022-08-25T07:30:32.625Z,1014.34
2022-08-25T07:31:30.913Z,1014.39
2022-08-25T07:32:31.219Z,1014.47
2022-08-25T07:33:30.858Z,1014.43
2022-08-25T07:34:30.851Z,1014.40
2022-08-25T07:35:37.500Z,1014.46
2022-08-25T07:36:31.139Z,1014.44
2022-08-25T07:37:47.523Z,1014.45
2022-08-25T07:38:31.127Z,1014.44
2022-08-25T07:39:30.106Z,1014.43
2022-08-25T07:40:30.227Z,1014.43
2022-08-25T07:41:30.129Z,1014.49
2022-08-25T07:42:30.778Z,1014.45
2022-08-25T07:43:30.085Z,1014.48
2022-08-25T07:44:32.540Z,1014.44
2022-08-25T07:45:30.732Z,1014.48
2022-08-25T07:46:30.089Z,1014.43
2022-08-25T07:47:30.031Z,1014.44
2022-08-25T07:48:30.053Z,1014.48
2022-08-25T07:49:35.996Z,1014.44
2022-08-25T07:50:31.152Z,1014.44
2022-08-25T07:51:32.021Z,1014.40
2022-08-25T07:52:29.982Z,1014.45
2022-08-25T07:53:31.885Z,1014.43
2022-08-25T07:54:34.606Z,1014.43
2022-08-25T07:55:31.414Z,1014.42
2022-08-25T07:56:29.988Z,1014.43
2022-08-25T07:57:30.607Z,1014.44
2022-08-25T07:58:30.612Z,1014.40
2022-08-25T07:59:30.591Z,1014.42
2022-08-25T08:00:30.577Z,1014.44
2022-08-25T08:01:29.924Z,1014.41
2022-08-25T08:02:30.004Z,1014.42
2022-08-25T08:03:45.362Z,1014.41
2022-08-25T08:04:30.859Z,1014.39
2022-08-25T08:05:30.539Z,1014.32
2022-08-25T08:06:30.771Z,1014.36
2022-08-25T08:07:43.510Z,1014.31
2022-08-25T08:08:31.492Z,1014.35
2022-08-25T08:09:30.122Z,1014.34
2022-08-25T08:10:48.003Z,1014.37
2022-08-25T08:11:31.746Z,1014.30
2022-08-25T08:12:29.912Z,1014.30
2022-08-25T08:13:29.783Z,1014.32
2022-08-25T08:14:30.013Z,1014.36
2022-08-25T08:15:30.327Z,1014.35
2022-08-25T08:16:29.803Z,1014.28
2022-08-25T08:17:29.733Z,1014.31
2022-08-25T08:18:29.798Z,1014.27
2022-08-25T08:19:30.446Z,1014.25
2022-08-25T08:20:31.781Z,1014.32
2022-08-25T08:21:30.687Z,1014.30
2022-08-25T08:22:29.723Z,1014.29
2022-08-25T08:23:31.789Z,1014.36
2022-08-25T08:24:44.014Z,1014.30
2022-08-25T08:25:31.635Z,1014.25
2022-08-25T08:26:48.548Z,1014.29
2022-08-25T08:27:30.626Z,1014.31
2022-08-25T08:28:31.554Z,1014.30
2022-08-25T08:29:30.278Z,1014.27
2022-08-25T08:30:30.282Z,1014.28
2022-08-25T08:31:32.120Z,1014.24
2022-08-25T08:32:36.680Z,1014.18
2022-08-25T08:33:31.980Z,1014.16
2022-08-25T08:34:30.530Z,1014.12
2022-08-25T08:35:31.470Z,1014.10
2022-08-25T08:36:31.971Z,1014.25
2022-08-25T08:37:30.293Z,1014.08
2022-08-25T08:38:30.462Z,1014.11
2022-08-25T08:39:30.468Z,1014.15
2022-08-25T08:40:30.229Z,1014.03
2022-08-25T08:41:30.558Z,1014.01
2022-08-25T08:42:31.515Z,1014.04
2022-08-25T08:43:33.336Z,1014.13
2022-08-25T08:44:30.124Z,1014.10
2022-08-25T08:45:30.385Z,1014.11
2022-08-25T08:46:31.935Z,1014.09
2022-08-25T08:47:31.866Z,1014.13
2022-08-25T08:48:30.166Z,1014.08
2022-08-25T08:49:30.357Z,1014.02
2022-08-25T08:50:33.013Z,1013.96
2022-08-25T08:51:32.974Z,1013.89
2022-08-25T08:52:31.838Z,1013.95
2022-08-25T08:53:34.209Z,1013.87
2022-08-25T08:54:34.091Z,1013.85
2022-08-25T08:55:30.290Z,1013.89
2022-08-25T08:56:31.787Z,1013.83
2022-08-25T08:57:29.319Z,1013.82
2022-08-25T08:58:30.002Z,1013.73
2022-08-25T08:59:30.885Z,1013.87
2022-08-25T09:00:31.837Z,1013.81
2022-08-25T09:01:31.791Z,1013.82
2022-08-25T09:02:39.407Z,1013.77
2022-08-25T09:03:30.330Z,1013.72
2022-08-25T09:04:30.212Z,1013.75
2022-08-25T09:05:29.912Z,1013.70
2022-08-25T09:06:29.894Z,1013.70
2022-08-25T09:07:29.892Z,1013.73
2022-08-25T09:08:29.205Z,1013.72
2022-08-25T09:09:29.199Z,1013.71
2022-08-25T09:10:31.165Z,1013.61
2022-08-25T09:11:30.661Z,1013.64
2022-08-25T09:12:29.849Z,1013.62
2022-08-25T09:13:29.188Z,1013.74
2022-08-25T09:14:30.308Z,1013.62
2022-08-25T09:15:29.131Z,1013.52
2022-08-25T09:16:33.945Z,1013.64
2022-08-25T09:17:29.338Z,1013.60
2022-08-25T09:18:31.578Z,1013.66
2022-08-25T09:19:29.770Z,1013.65
2022-08-25T09:20:29.789Z,1013.63
2022-08-25T09:21:29.080Z,1013.62
2022-08-25T09:22:35.053Z,1013.58
2022-08-25T09:23:32.913Z,1013.54
2022-08-25T09:24:29.897Z,1013.57
2022-08-25T09:26:30.876Z,1013.54
2022-08-25T09:27:29.111Z,1013.50
2022-08-25T09:28:29.954Z,1013.51
2022-08-25T09:29:29.033Z,1013.53
2022-08-25T09:30:29.404Z,1013.51
2022-08-25T09:31:30.065Z,1013.46
2022-08-25T09:32:31.166Z,1013.55
2022-08-25T09:33:29.977Z,1013.49
2022-08-25T09:34:28.935Z,1013.44
2022-08-25T09:35:29.102Z,1013.43
2022-08-25T09:36:28.925Z,1013.41
2022-08-25T09:37:28.936Z,1013.41
2022-08-25T09:38:30.859Z,1013.41
2022-08-25T09:39:28.900Z,1013.34
2022-08-25T09:40:29.605Z,1013.42
2022-08-25T09:41:29.565Z,1013.37
2022-08-25T09:42:28.847Z,1013.35
2022-08-25T09:43:29.517Z,1013.33
2022-08-25T09:44:28.890Z,1013.32
2022-08-25T09:45:29.498Z,1013.33
2022-08-25T09:46:28.931Z,1013.33
2022-08-25T09:47:29.150Z,1013.33
2022-08-25T09:48:28.799Z,1013.31
2022-08-25T09:49:29.462Z,1013.27
2022-08-25T09:50:28.769Z,1013.25
2022-08-25T09:51:38.166Z,1013.29
2022-08-25T09:52:29.894Z,1013.27
2022-08-25T09:53:29.426Z,1013.24
2022-08-25T09:54:33.970Z,1013.23
2022-08-25T09:55:32.391Z,1013.21
2022-08-25T09:56:28.715Z,1013.19
2022-08-25T09:57:29.374Z,1013.13
2022-08-25T09:58:28.786Z,1013.14
2022-08-25T09:59:30.948Z,1013.18
2022-08-25T10:00:30.982Z,1013.16
2022-08-25T10:01:28.714Z,1013.13
2022-08-25T10:02:29.716Z,1013.11
2022-08-25T10:03:28.652Z,1013.13
2022-08-25T10:04:29.333Z,1013.08
2022-08-25T10:05:29.344Z,1013.09
2022-08-25T10:06:29.494Z,1013.13
2022-08-25T10:07:29.289Z,1012.98
2022-08-25T10:08:28.600Z,1013.00
2022-08-25T10:09:29.302Z,1012.97
2022-08-25T10:10:28.608Z,1013.11
2022-08-25T10:11:30.527Z,1013.00
2022-08-25T10:12:28.542Z,1012.95
2022-08-25T10:13:29.970Z,1012.98
2022-08-25T10:14:29.408Z,1012.97
2022-08-25T10:15:30.695Z,1012.99
2022-08-25T10:16:34.061Z,1012.91
2022-08-25T10:17:30.196Z,1012.93
2022-08-25T10:18:29.173Z,1012.92
2022-08-25T10:19:29.152Z,1012.91
2022-08-25T10:20:32.997Z,1012.88
2022-08-25T10:21:29.485Z,1012.78
2022-08-25T10:22:29.128Z,1012.82
2022-08-25T10:23:30.650Z,1012.84
2022-08-25T10:24:28.425Z,1012.86
2022-08-25T10:25:29.107Z,1012.92
2022-08-25T10:26:30.320Z,1012.85
2022-08-25T10:27:29.117Z,1012.75
2022-08-25T10:28:28.396Z,1012.77
2022-08-25T10:29:29.057Z,1012.80
2022-08-25T10:30:29.045Z,1012.73
2022-08-25T10:31:29.111Z,1012.69
2022-08-25T10:32:28.357Z,1012.65
2022-08-25T10:33:28.362Z,1012.58
2022-08-25T10:34:28.340Z,1012.55
2022-08-25T10:35:29.000Z,1012.57
2022-08-25T10:36:28.982Z,1012.53
2022-08-25T10:37:32.734Z,1012.52
2022-08-25T10:38:31.186Z,1012.40
2022-08-25T10:39:34.585Z,1012.45
2022-08-25T10:40:29.981Z,1012.44
2022-08-25T10:41:28.941Z,1012.47
2022-08-25T10:42:28.262Z,1012.40
2022-08-25T10:43:29.665Z,1012.38
2022-08-25T10:44:28.223Z,1012.33
2022-08-25T10:45:28.251Z,1012.28
2022-08-25T10:46:28.903Z,1012.28
2022-08-25T10:47:28.185Z,1012.30
2022-08-25T10:48:29.634Z,1012.29
2022-08-25T10:49:28.166Z,1012.29
2022-08-25T10:50:28.173Z,1012.21
2022-08-25T10:51:29.217Z,1012.21
2022-08-25T10:52:28.834Z,1012.19
2022-08-25T10:53:28.128Z,1012.18
2022-08-25T10:54:28.798Z,1012.13
2022-08-25T10:55:28.099Z,1012.14
2022-08-25T10:56:28.108Z,1012.20
2022-08-25T10:57:28.769Z,1012.17
2022-08-25T10:58:30.795Z,1012.13
2022-08-25T10:59:28.741Z,1012.14
2022-08-25T11:00:31.756Z,1012.12
2022-08-25T11:01:32.979Z,1012.07
2022-08-25T11:02:29.701Z,1012.12
2022-08-25T11:03:28.028Z,1012.11
2022-08-25T11:04:29.692Z,1012.05
2022-08-25T11:05:28.852Z,1012.04
2022-08-25T11:06:28.677Z,1012.11
2022-08-25T11:07:28.058Z,1012.01
2022-08-25T11:08:29.989Z,1012.07
2022-08-25T11:09:28.645Z,1012.16
2022-08-25T11:10:28.634Z,1012.19
2022-08-25T11:11:28.614Z,1012.14
2022-08-25T11:12:28.605Z,1012.13
2022-08-25T11:13:28.595Z,1012.09
2022-08-25T11:14:29.443Z,1012.02
2022-08-25T11:15:29.578Z,1012.03
2022-08-25T11:16:27.939Z,1012.14
2022-08-25T11:17:28.567Z,1012.06
2022-08-25T11:18:28.558Z,1012.04
2022-08-25T11:19:27.882Z,1011.97
2022-08-25T11:20:27.950Z,1012.02
2022-08-25T11:21:28.512Z,1012.04
2022-08-25T11:22:28.513Z,1011.95
2022-08-25T11:23:27.833Z,1012.04
2022-08-25T11:24:28.496Z,1012.02
2022-08-25T11:25:27.799Z,1012.01
2022-08-25T11:26:31.009Z,1011.98
2022-08-25T11:27:28.459Z,1011.99
2022-08-25T11:28:28.449Z,1011.95
2022-08-25T11:29:28.431Z,1012.02
2022-08-25T11:30:28.453Z,1011.87
2022-08-25T11:31:28.412Z,1011.98
2022-08-25T11:32:28.403Z,1011.98
2022-08-25T11:33:27.741Z,1011.94
2022-08-25T11:34:28.772Z,1011.94
2022-08-25T11:35:28.385Z,1011.91
2022-08-25T11:36:29.491Z,1011.96
2022-08-25T11:37:27.679Z,1011.98
2022-08-25T11:38:27.784Z,1011.84
2022-08-25T11:39:31.222Z,1011.89
2022-08-25T11:40:30.614Z,1011.89
2022-08-25T11:41:27.644Z,1011.90
2022-08-25T11:42:27.619Z,1011.97
2022-08-25T11:43:27.626Z,1011.89
2022-08-25T11:44:28.267Z,1011.97
2022-08-25T11:45:27.581Z,1011.86
2022-08-25T11:46:28.289Z,1011.92
2022-08-25T11:47:28.254Z,1011.88
2022-08-25T11:48:27.550Z,1011.88
2022-08-25T11:49:28.231Z,1011.87
2022-08-25T11:50:30.365Z,1011.82
2022-08-25T11:51:28.223Z,1011.90
2022-08-25T11:52:30.591Z,1011.96
2022-08-25T11:53:30.349Z,1011.93
2022-08-25T11:54:27.506Z,1011.93
2022-08-25T11:55:28.477Z,1011.92
2022-08-25T11:56:27.629Z,1011.93
2022-08-25T11:57:28.167Z,1011.87
2022-08-25T11:58:28.145Z,1011.94
2022-08-25T11:59:28.152Z,1011.92
2022-08-25T12:00:27.450Z,1011.96
2022-08-25T12:01:27.444Z,1011.94
2022-08-25T12:02:27.456Z,1011.85
2022-08-25T12:03:28.086Z,1011.89
2022-08-25T12:04:28.292Z,1011.83
2022-08-25T12:05:27.435Z,1011.83
2022-08-25T12:06:27.374Z,1011.82